Time;durP1;ratioP1;P1;durP2;ratioP2;P2;SDS_P1;SDS_P2;PMS_P1;PMS_P2;Temp;Humidity;BMP_temperature;BMP_pressure;BME280_temperature;BME280_humidity;BME280_pressure;Samples;Min_cycle;Max_cycle;Signal;HPM_P1;HPM_P2
2023/07/31 00:02:06;;;;;;;0.70;0.70;;;;;;;17.72;83.21;100612.41;5168166;28;20059;-85
2023/07/31 00:04:56;;;;;;;6.03;1.55;;;;;;;17.60;83.69;100609.50;5164955;28;20027;-84
2023/07/31 00:07:47;;;;;;;0.40;0.40;;;;;;;17.84;82.19;100603.69;5160104;28;20072;-84
2023/07/31 00:10:38;;;;;;;2.55;0.88;;;;;;;17.77;82.09;100612.97;5170480;28;20325;-84
2023/07/31 00:13:29;;;;;;;0.30;0.30;;;;;;;17.75;82.09;100599.81;5169377;28;20070;-83
2023/07/31 00:16:20;;;;;;;0.28;0.28;;;;;;;17.77;82.45;100607.66;5175943;28;20069;-84
2023/07/31 00:19:10;;;;;;;0.80;0.80;;;;;;;17.90;81.66;100611.28;5184111;28;20080;-84
2023/07/31 00:22:01;;;;;;;1.38;0.82;;;;;;;17.78;81.24;100604.06;5168760;28;20434;-84
2023/07/31 00:24:52;;;;;;;0.52;0.52;;;;;;;17.80;81.64;100614.56;5164261;28;20109;-84
2023/07/31 00:27:44;;;;;;;2.42;0.43;;;;;;;17.79;81.76;100603.13;5173745;28;20421;-84
2023/07/31 00:30:35;;;;;;;0.50;0.47;;;;;;;17.96;80.72;100596.00;5172492;28;20057;-83
2023/07/31 00:33:25;;;;;;;1.33;1.23;;;;;;;17.68;81.39;100605.53;5166183;28;20038;-84
2023/07/31 00:36:17;;;;;;;0.40;0.40;;;;;;;17.85;80.84;100596.59;5168832;28;20042;-84
2023/07/31 00:39:08;;;;;;;0.30;0.30;;;;;;;17.77;81.08;100602.34;5179255;28;20038;-84
2023/07/31 00:41:59;;;;;;;0.20;0.20;;;;;;;17.77;81.02;100602.34;5174589;28;20449;-84
2023/07/31 00:44:50;;;;;;;0.93;0.93;;;;;;;17.84;80.71;100594.91;5168389;28;20038;-85
2023/07/31 00:47:41;;;;;;;0.47;0.38;;;;;;;17.98;79.74;100604.69;5172450;28;20512;-83
2023/07/31 00:50:33;;;;;;;0.20;0.20;;;;;;;17.85;80.20;100593.94;5161081;28;20054;-86
2023/07/31 00:53:24;;;;;;;1.23;0.88;;;;;;;17.87;79.72;100589.38;5156798;28;20030;-83
2023/07/31 00:56:16;;;;;;;0.73;0.73;;;;;;;17.64;80.57;100599.56;5159068;28;20039;-83
2023/07/31 00:59:06;;;;;;;0.20;0.20;;;;;;;17.62;80.74;100585.53;5177576;28;20095;-84
2023/07/31 01:01:57;;;;;;;0.40;0.30;;;;;;;17.71;80.07;100584.16;5182837;28;20030;-84
2023/07/31 01:04:48;;;;;;;0.70;0.70;;;;;;;17.65;80.28;100580.06;5171255;28;20825;-85
2023/07/31 01:08:05;;;;;;;0.22;0.22;;;;;;;17.64;79.88;100582.81;5156379;28;20584;-84
2023/07/31 01:11:05;;;;;;;0.65;0.65;;;;;;;17.80;79.24;100578.31;5147441;28;20069;-84
2023/07/31 01:13:57;;;;;;;0.65;0.65;;;;;;;17.75;79.32;100575.91;5155041;28;20034;-85
2023/07/31 01:16:48;;;;;;;0.40;0.40;;;;;;;17.72;78.87;100576.09;5160093;28;20022;-85
2023/07/31 01:19:39;;;;;;;1.27;0.73;;;;;;;17.64;79.19;100577.50;5169803;28;20766;-85
2023/07/31 01:22:38;;;;;;;0.25;0.22;;;;;;;17.54;79.25;100575.38;5165975;28;20120;-82
2023/07/31 01:25:52;;;;;;;0.77;0.60;;;;;;;17.69;78.67;100576.25;5174738;28;20030;-85
2023/07/31 01:28:57;;;;;;;0.35;0.35;;;;;;;17.59;78.93;100575.13;5147895;28;20022;-84
2023/07/31 01:31:50;;;;;;;0.60;0.60;;;;;;;17.73;78.59;100571.63;5169790;28;20036;-85
2023/07/31 01:34:41;;;;;;;0.80;0.80;;;;;;;17.61;78.94;100584.69;5167339;28;20048;-85
2023/07/31 01:37:32;;;;;;;0.20;0.20;;;;;;;17.70;78.62;100579.78;5168436;28;20041;-84
2023/07/31 01:40:23;;;;;;;0.40;0.40;;;;;;;17.77;78.42;100578.47;5175217;28;20025;-84
2023/07/31 01:43:14;;;;;;;2.10;0.93;;;;;;;17.67;78.84;100572.00;5175384;28;20575;-84
2023/07/31 01:46:04;;;;;;;2.28;0.65;;;;;;;17.61;79.16;100566.13;5167676;28;20045;-84
2023/07/31 01:48:55;;;;;;;0.30;0.30;;;;;;;17.53;79.64;100556.88;5156960;28;20105;-83
2023/07/31 01:51:46;;;;;;;0.55;0.55;;;;;;;17.61;79.62;100568.78;5170409;28;20049;-84
2023/07/31 01:54:37;;;;;;;0.60;0.60;;;;;;;17.52;80.23;100564.00;5155004;28;20062;-84
2023/07/31 01:57:27;;;;;;;2.10;1.45;;;;;;;17.55;80.06;100561.19;5170298;28;20032;-85
2023/07/31 02:00:18;;;;;;;0.68;0.68;;;;;;;17.54;80.31;100553.28;5169998;28;20626;-84
2023/07/31 02:03:09;;;;;;;0.45;0.45;;;;;;;17.46;80.20;100553.75;5181838;28;20055;-86
2023/07/31 02:06:00;;;;;;;0.30;0.30;;;;;;;17.71;79.65;100554.97;5164279;28;20129;-84
2023/07/31 02:08:51;;;;;;;1.15;1.05;;;;;;;17.68;79.56;100550.69;5164938;28;20030;-85
2023/07/31 02:11:42;;;;;;;0.55;0.55;;;;;;;17.66;79.96;100543.75;5162378;28;20049;-85
2023/07/31 02:14:33;;;;;;;0.75;0.75;;;;;;;17.70;80.11;100547.94;5165656;28;20044;-85
2023/07/31 02:17:23;;;;;;;0.88;0.88;;;;;;;17.68;80.26;100541.88;5174059;28;20030;-83
2023/07/31 02:20:14;;;;;;;0.20;0.20;;;;;;;17.69;80.52;100543.59;5169820;28;20231;-83
2023/07/31 02:23:05;;;;;;;0.38;0.38;;;;;;;17.66;80.66;100538.44;5164868;28;20093;-84
2023/07/31 02:25:56;;;;;;;0.45;0.45;;;;;;;17.69;80.72;100548.88;5165825;28;20030;-84
2023/07/31 02:28:46;;;;;;;0.88;0.88;;;;;;;17.74;80.58;100538.84;5171940;28;20406;-85
2023/07/31 02:31:37;;;;;;;1.75;1.05;;;;;;;17.81;80.04;100545.47;5167409;28;20032;-84
2023/07/31 02:34:28;;;;;;;0.68;0.68;;;;;;;17.77;80.47;100547.47;5168574;28;20336;-84
2023/07/31 02:37:19;;;;;;;6.22;0.63;;;;;;;17.85;80.19;100539.06;5167772;28;20510;-84
2023/07/31 02:40:10;;;;;;;0.68;0.68;;;;;;;17.73;80.68;100540.66;5190950;28;20038;-84
2023/07/31 02:43:01;;;;;;;0.75;0.75;;;;;;;17.61;81.22;100530.75;5182776;28;20038;-82
2023/07/31 02:45:52;;;;;;;0.30;0.30;;;;;;;17.60;81.30;100540.53;5182995;28;20037;-84
2023/07/31 02:48:43;;;;;;;0.35;0.35;;;;;;;17.68;81.15;100528.59;5167430;28;20033;-83
2023/07/31 02:51:34;;;;;;;0.45;0.45;;;;;;;17.65;81.49;100534.09;5170494;28;20500;-84
2023/07/31 02:54:25;;;;;;;1.88;1.48;;;;;;;17.63;81.25;100523.56;5164729;28;20521;-84
2023/07/31 02:57:16;;;;;;;8.30;0.70;;;;;;;17.59;81.36;100517.59;5169711;28;20034;-83
2023/07/31 03:00:07;;;;;;;4.90;0.75;;;;;;;17.53;81.70;100517.97;5167341;28;20035;-84
2023/07/31 03:02:58;;;;;;;0.65;0.65;;;;;;;17.55;82.02;100508.13;5168236;28;20064;-84
2023/07/31 03:05:49;;;;;;;7.65;1.65;;;;;;;17.52;81.93;100510.13;5156001;28;20406;-84
2023/07/31 03:08:39;;;;;;;0.60;0.60;;;;;;;17.61;81.55;100507.75;5165975;28;20043;-85
2023/07/31 03:11:31;;;;;;;3.70;1.23;;;;;;;17.60;81.16;100511.34;5156627;28;20046;-85
2023/07/31 03:14:22;;;;;;;0.95;0.93;;;;;;;17.57;81.78;100506.22;5169910;28;20046;-83
2023/07/31 03:17:13;;;;;;;3.25;2.13;;;;;;;17.67;81.40;100513.63;5166445;28;20061;-85
2023/07/31 03:20:04;;;;;;;0.47;0.47;;;;;;;17.66;81.49;100504.81;5178844;28;20035;-84
2023/07/31 03:22:55;;;;;;;0.77;0.77;;;;;;;17.61;81.86;100509.53;5178086;28;20038;-83
2023/07/31 03:25:59;;;;;;;1.98;1.45;;;;;;;17.58;82.73;100510.59;5152810;28;20030;-85
2023/07/31 03:28:50;;;;;;;4.20;1.15;;;;;;;17.70;82.50;100508.16;5169303;28;20481;-84
2023/07/31 03:31:41;;;;;;;0.52;0.52;;;;;;;17.58;82.82;100509.75;5167766;28;20033;-85
2023/07/31 03:34:32;;;;;;;0.35;0.35;;;;;;;17.65;82.74;100504.91;5160068;28;20060;-86
2023/07/31 03:37:22;;;;;;;0.57;0.57;;;;;;;17.66;82.31;100501.31;5173120;28;20050;-84
2023/07/31 03:40:13;;;;;;;0.60;0.47;;;;;;;17.71;81.79;100502.75;5168001;28;20042;-85
2023/07/31 03:43:05;;;;;;;1.42;0.60;;;;;;;17.75;81.47;100496.31;5169625;28;20101;-84
2023/07/31 03:45:55;;;;;;;0.63;0.50;;;;;;;17.70;81.77;100486.91;5168246;28;20831;-85
2023/07/31 03:48:46;;;;;;;0.20;0.20;;;;;;;17.62;81.84;100493.56;5160160;28;20034;-85
2023/07/31 03:51:37;;;;;;;0.40;0.40;;;;;;;17.57;82.08;100487.66;5178977;28;20552;-85
2023/07/31 03:54:28;;;;;;;0.38;0.38;;;;;;;17.70;81.33;100485.09;5173923;28;20046;-85
2023/07/31 03:57:19;;;;;;;5.20;1.70;;;;;;;17.63;81.45;100481.13;5158854;28;20560;-84
2023/07/31 04:00:10;;;;;;;0.32;0.32;;;;;;;17.69;81.95;100483.41;5178950;28;20072;-85
2023/07/31 04:03:01;;;;;;;0.20;0.20;;;;;;;17.74;81.60;100473.38;5171142;28;20410;-85
2023/07/31 04:05:54;;;;;;;0.70;0.70;;;;;;;17.69;81.83;100474.59;5168218;28;20038;-85
2023/07/31 04:08:45;;;;;;;1.30;0.63;;;;;;;17.62;82.61;100479.41;5170606;28;20492;-85
2023/07/31 04:11:35;;;;;;;1.08;0.68;;;;;;;17.58;82.87;100469.94;5159563;28;20512;-85
2023/07/31 04:14:26;;;;;;;9.07;1.35;;;;;;;17.64;82.69;100460.78;5169620;28;20460;-87
2023/07/31 04:17:17;;;;;;;0.32;0.32;;;;;;;17.74;82.24;100459.25;5175232;28;20045;-85
2023/07/31 04:20:09;;;;;;;0.32;0.32;;;;;;;17.77;81.98;100467.03;5173302;28;20049;-85
2023/07/31 04:23:00;;;;;;;0.75;0.75;;;;;;;17.83;81.54;100460.50;5156750;28;20081;-85
2023/07/31 04:25:51;;;;;;;1.02;1.00;;;;;;;17.84;81.31;100463.03;5188124;28;20033;-84
2023/07/31 04:28:41;;;;;;;1.02;1.02;;;;;;;17.85;81.13;100455.94;5199803;28;20122;-84
2023/07/31 04:31:33;;;;;;;0.50;0.50;;;;;;;17.83;81.50;100461.31;5186860;28;20663;-83
2023/07/31 04:34:24;;;;;;;0.45;0.45;;;;;;;17.94;79.99;100456.22;5154719;28;20058;-83
2023/07/31 04:37:15;;;;;;;0.50;0.50;;;;;;;17.90;80.88;100460.00;5170212;28;20783;-85
2023/07/31 04:40:06;;;;;;;0.65;0.65;;;;;;;17.81;81.38;100457.06;5170832;28;20029;-85
2023/07/31 04:42:57;;;;;;;0.47;0.47;;;;;;;17.90;80.78;100446.72;5175522;28;20031;-83
2023/07/31 04:45:48;;;;;;;0.50;0.50;;;;;;;17.93;81.31;100448.38;5195696;28;20644;-84
2023/07/31 04:48:39;;;;;;;0.70;0.60;;;;;;;18.01;80.21;100446.13;5173755;28;20042;-84
2023/07/31 04:51:30;;;;;;;9.40;0.85;;;;;;;17.89;80.52;100449.50;5159390;28;20030;-83
2023/07/31 04:54:20;;;;;;;0.77;0.77;;;;;;;17.87;80.55;100446.94;5159569;28;20358;-84
2023/07/31 04:57:11;;;;;;;0.30;0.30;;;;;;;17.88;80.46;100447.78;5166137;28;20038;-84
2023/07/31 05:00:02;;;;;;;2.90;0.68;;;;;;;17.93;80.00;100429.78;5180804;28;20076;-84
2023/07/31 05:02:53;;;;;;;0.65;0.65;;;;;;;17.96;80.09;100428.75;5159314;28;20131;-84
2023/07/31 05:05:44;;;;;;;1.08;0.77;;;;;;;18.11;79.37;100425.13;5172804;28;20042;-84
2023/07/31 05:08:34;;;;;;;0.50;0.50;;;;;;;18.14;79.43;100430.22;5170396;28;20027;-83
2023/07/31 05:11:25;;;;;;;0.77;0.75;;;;;;;18.08;79.76;100415.56;5161041;28;20672;-84
2023/07/31 05:14:16;;;;;;;0.52;0.52;;;;;;;18.17;78.96;100419.44;5165935;28;20062;-84
2023/07/31 05:17:07;;;;;;;1.27;0.90;;;;;;;18.24;78.99;100411.94;5175638;28;20553;-84
2023/07/31 05:19:57;;;;;;;0.30;0.30;;;;;;;18.17;79.20;100406.16;5171739;28;20041;-84
2023/07/31 05:22:48;;;;;;;0.52;0.52;;;;;;;18.20;79.09;100405.97;5172356;28;20068;-85
2023/07/31 05:25:39;;;;;;;0.85;0.85;;;;;;;18.34;78.30;100402.44;5153976;28;20385;-84
2023/07/31 05:28:30;;;;;;;0.88;0.88;;;;;;;18.36;78.13;100400.50;5173979;28;20486;-84
2023/07/31 05:31:22;;;;;;;0.30;0.30;;;;;;;18.23;78.39;100388.97;5170776;28;20042;-84
2023/07/31 05:34:13;;;;;;;1.90;1.08;;;;;;;18.33;78.32;100387.44;5175232;28;20042;-83
2023/07/31 05:37:04;;;;;;;0.43;0.43;;;;;;;18.38;78.10;100366.72;5175250;28;20516;-84
2023/07/31 05:39:55;;;;;;;0.55;0.50;;;;;;;18.49;77.21;100373.16;5169355;28;20049;-84
2023/07/31 05:42:46;;;;;;;0.82;0.82;;;;;;;18.34;78.00;100373.22;5158034;28;20041;-84
2023/07/31 05:45:36;;;;;;;0.60;0.60;;;;;;;18.34;77.96;100375.00;5169206;28;20434;-85
2023/07/31 05:48:27;;;;;;;0.55;0.55;;;;;;;18.27;78.45;100379.84;5169716;28;20038;-84
2023/07/31 05:51:18;;;;;;;0.40;0.40;;;;;;;18.55;77.28;100380.72;5170415;28;20042;-84
2023/07/31 05:54:09;;;;;;;0.40;0.40;;;;;;;18.44;78.71;100376.09;5179954;28;20033;-83
2023/07/31 05:56:59;;;;;;;0.85;0.45;;;;;;;18.37;79.43;100378.31;5169586;28;20311;-84
2023/07/31 05:59:50;;;;;;;0.20;0.20;;;;;;;18.33;79.38;100367.97;5168322;28;20498;-84
2023/07/31 06:02:41;;;;;;;0.30;0.30;;;;;;;18.39;79.65;100367.56;5167599;28;20117;-84
2023/07/31 06:05:32;;;;;;;0.82;0.82;;;;;;;18.45;79.60;100367.19;5171766;28;20125;-84
2023/07/31 06:08:22;;;;;;;1.08;1.08;;;;;;;18.46;79.29;100374.22;5169734;28;20037;-84
2023/07/31 06:11:13;;;;;;;0.75;0.60;;;;;;;18.36;79.64;100370.44;5165975;28;20101;-83
2023/07/31 06:14:04;;;;;;;0.35;0.35;;;;;;;18.39;79.37;100367.56;5165627;28;20405;-84
2023/07/31 06:16:55;;;;;;;0.35;0.35;;;;;;;18.32;79.90;100364.50;5171222;28;20030;-83
2023/07/31 06:19:45;;;;;;;0.45;0.45;;;;;;;18.43;79.90;100362.94;5155454;28;20045;-84
2023/07/31 06:22:36;;;;;;;0.38;0.38;;;;;;;18.24;80.48;100364.97;5165839;28;20124;-84
2023/07/31 06:25:27;;;;;;;0.65;0.52;;;;;;;18.42;79.90;100363.88;5169494;28;20036;-84
2023/07/31 06:28:18;;;;;;;0.30;0.30;;;;;;;18.36;80.10;100363.31;5167810;28;20036;-83
2023/07/31 06:31:09;;;;;;;0.98;0.60;;;;;;;18.18;80.34;100370.69;5174792;28;20135;-84
2023/07/31 06:34:00;;;;;;;0.63;0.63;;;;;;;18.18;80.96;100383.13;5154011;28;20114;-83
2023/07/31 06:36:51;;;;;;;0.80;0.63;;;;;;;18.27;80.41;100381.66;5156674;28;20109;-84
2023/07/31 06:39:42;;;;;;;0.40;0.40;;;;;;;18.22;80.84;100372.19;5154937;28;20041;-84
2023/07/31 06:42:33;;;;;;;0.30;0.30;;;;;;;18.32;80.28;100371.59;5168903;28;20026;-84
2023/07/31 06:45:23;;;;;;;1.13;0.88;;;;;;;18.32;80.19;100374.25;5175838;28;20192;-85
2023/07/31 06:48:14;;;;;;;10.85;1.58;;;;;;;18.43;79.70;100368.25;5154035;28;20477;-85
2023/07/31 06:51:05;;;;;;;0.85;0.85;;;;;;;18.30;80.24;100370.84;5165491;28;20039;-85
2023/07/31 06:53:56;;;;;;;0.52;0.52;;;;;;;18.32;79.98;100367.16;5153922;28;20505;-82
2023/07/31 06:56:47;;;;;;;0.28;0.28;;;;;;;18.15;80.56;100360.25;5155918;28;20053;-84
2023/07/31 06:59:38;;;;;;;0.20;0.20;;;;;;;18.25;80.66;100358.72;5170637;28;20414;-84
2023/07/31 07:02:28;;;;;;;0.25;0.25;;;;;;;18.32;79.72;100366.28;5167909;28;20034;-84
2023/07/31 07:05:19;;;;;;;5.13;1.08;;;;;;;18.19;80.09;100372.41;5155419;28;20043;-85
2023/07/31 07:08:10;;;;;;;0.40;0.40;;;;;;;18.28;80.77;100372.75;5173194;28;20062;-84
2023/07/31 07:11:01;;;;;;;0.75;0.75;;;;;;;18.09;80.88;100361.53;5164524;28;20398;-84
2023/07/31 07:13:52;;;;;;;0.63;0.50;;;;;;;18.12;80.43;100363.13;5170395;28;20537;-84
2023/07/31 07:16:42;;;;;;;0.30;0.30;;;;;;;18.16;81.51;100366.44;5172269;28;20032;-84
2023/07/31 07:19:33;;;;;;;0.50;0.50;;;;;;;18.05;82.68;100367.97;5170593;28;20037;-83
2023/07/31 07:22:25;;;;;;;0.63;0.63;;;;;;;18.03;82.96;100359.25;5160580;28;20038;-84
2023/07/31 07:25:16;;;;;;;1.10;0.60;;;;;;;18.05;83.22;100362.66;5170860;28;20128;-84
2023/07/31 07:28:07;;;;;;;2.28;0.88;;;;;;;17.94;83.55;100363.31;5161314;28;20053;-85
2023/07/31 07:30:58;;;;;;;0.40;0.40;;;;;;;17.99;83.60;100364.84;5168765;28;20030;-84
2023/07/31 07:33:48;;;;;;;3.65;0.65;;;;;;;17.73;84.85;100364.66;5158347;28;20398;-84
2023/07/31 07:36:39;;;;;;;0.40;0.40;;;;;;;17.73;84.90;100360.22;5178488;28;20042;-84
2023/07/31 07:39:30;;;;;;;0.30;0.30;;;;;;;17.76;85.34;100362.69;5158632;28;20034;-84
2023/07/31 07:42:21;;;;;;;0.63;0.63;;;;;;;17.56;84.68;100365.72;5171225;28;20110;-83
2023/07/31 07:45:12;;;;;;;0.50;0.50;;;;;;;17.61;84.76;100367.16;5183470;28;20035;-84
2023/07/31 07:48:03;;;;;;;1.40;1.30;;;;;;;17.58;86.17;100369.16;5166907;28;20509;-83
2023/07/31 07:50:54;;;;;;;0.35;0.35;;;;;;;17.68;86.27;100361.47;5160896;28;20030;-84
2023/07/31 07:53:45;;;;;;;1.60;0.85;;;;;;;17.78;85.61;100360.78;5169516;28;20088;-84
2023/07/31 07:56:36;;;;;;;0.20;0.20;;;;;;;17.75;86.05;100352.16;5168003;28;20081;-83
2023/07/31 07:59:27;;;;;;;0.50;0.50;;;;;;;17.74;85.71;100358.41;5169284;28;20030;-83
2023/07/31 08:02:17;;;;;;;3.63;0.73;;;;;;;17.83;85.53;100349.88;5169699;28;20069;-83
2023/07/31 08:05:08;;;;;;;0.85;0.85;;;;;;;17.88;84.72;100347.81;5177437;28;20026;-83
2023/07/31 08:07:59;;;;;;;0.55;0.55;;;;;;;17.90;84.44;100345.03;5156082;28;20030;-83
2023/07/31 08:10:50;;;;;;;0.20;0.20;;;;;;;17.67;84.97;100335.88;5167821;28;20030;-82
2023/07/31 08:13:41;;;;;;;0.45;0.45;;;;;;;17.69;85.04;100340.13;5169582;28;20026;-83
2023/07/31 08:16:32;;;;;;;0.55;0.55;;;;;;;17.55;85.44;100329.53;5175709;28;20057;-82
2023/07/31 08:19:23;;;;;;;1.45;1.35;;;;;;;17.36;86.20;100330.69;5160627;28;20045;-83
2023/07/31 08:22:14;;;;;;;0.30;0.30;;;;;;;17.47;85.89;100332.69;5176174;28;20435;-83
2023/07/31 08:25:06;;;;;;;0.50;0.50;;;;;;;17.54;86.56;100333.13;5178162;28;20055;-84
2023/07/31 08:27:57;;;;;;;0.85;0.85;;;;;;;17.55;86.40;100314.50;5169091;28;20034;-83
2023/07/31 08:30:48;;;;;;;0.52;0.50;;;;;;;17.67;86.26;100328.78;5166818;28;20041;-83
2023/07/31 08:33:40;;;;;;;2.38;0.75;;;;;;;17.75;85.41;100322.97;5170004;28;20572;-84
2023/07/31 08:36:30;;;;;;;0.20;0.20;;;;;;;17.67;85.06;100322.59;5173401;28;20042;-84
2023/07/31 08:39:21;;;;;;;0.55;0.55;;;;;;;17.64;85.10;100323.66;5161099;28;20409;-83
2023/07/31 08:42:12;;;;;;;0.20;0.20;;;;;;;17.72;85.32;100320.53;5172753;28;20507;-83
2023/07/31 08:45:03;;;;;;;0.52;0.52;;;;;;;17.98;83.63;100320.66;5169460;28;20841;-84
2023/07/31 08:47:55;;;;;;;0.30;0.30;;;;;;;17.86;83.92;100325.81;5169460;28;20053;-83
2023/07/31 08:50:46;;;;;;;0.28;0.28;;;;;;;17.90;84.38;100318.50;5169354;28;20124;-83
2023/07/31 08:53:37;;;;;;;2.05;1.33;;;;;;;17.72;84.37;100315.22;5160649;28;20131;-83
2023/07/31 08:56:28;;;;;;;0.50;0.50;;;;;;;17.70;85.95;100333.03;5171740;28;20056;-83
2023/07/31 08:59:21;;;;;;;0.20;0.20;;;;;;;17.58;85.42;100324.91;5169734;28;20045;-83
2023/07/31 09:02:15;;;;;;;0.43;0.43;;;;;;;17.79;84.71;100332.47;5183312;28;20037;-84
2023/07/31 09:05:07;;;;;;;0.47;0.47;;;;;;;17.81;84.95;100325.22;5177984;28;20037;-84
2023/07/31 09:07:58;;;;;;;0.82;0.82;;;;;;;17.86;84.96;100331.13;5171095;28;20476;-84
2023/07/31 09:10:52;;;;;;;0.50;0.50;;;;;;;17.99;84.12;100322.38;5171398;28;20044;-83
2023/07/31 09:13:42;;;;;;;;;;;;;;;17.78;84.29;100323.63;5156034;28;20053;-84
2023/07/31 09:16:33;;;;;;;0.68;0.43;;;;;;;17.96;84.17;100327.91;5163367;28;19932;-83
2023/07/31 09:19:27;;;;;;;1.27;0.73;;;;;;;17.98;84.09;100318.88;5167737;28;20034;-84
2023/07/31 09:22:31;;;;;;;0.40;0.40;;;;;;;17.96;84.60;100312.81;5167960;28;20038;-84
2023/07/31 09:25:24;;;;;;;0.30;0.30;;;;;;;17.97;83.89;100313.69;5157829;28;20042;-83
2023/07/31 09:28:16;;;;;;;1.05;1.00;;;;;;;17.98;83.35;100308.28;5158183;28;20781;-83
2023/07/31 09:31:07;;;;;;;0.47;0.47;;;;;;;17.86;84.50;100299.28;5163701;28;20778;-83
2023/07/31 09:33:57;;;;;;;0.75;0.75;;;;;;;17.97;83.62;100319.00;5167780;28;20034;-83
2023/07/31 09:36:50;;;;;;;0.30;0.30;;;;;;;17.90;84.84;100308.72;5154800;28;20080;-84
2023/07/31 09:39:48;;;;;;;1.85;1.15;;;;;;;17.78;85.13;100298.91;5167169;28;20041;-84
2023/07/31 09:42:38;;;;;;;0.40;0.40;;;;;;;18.01;84.14;100299.25;5179386;28;20025;-83
2023/07/31 09:45:30;;;;;;;0.50;0.50;;;;;;;18.04;84.45;100296.41;5168355;28;20035;-84
2023/07/31 09:48:26;;;;;;;0.28;0.28;;;;;;;18.05;84.97;100291.00;5166006;28;20030;-84
2023/07/31 09:51:17;;;;;;;0.75;0.75;;;;;;;18.13;84.54;100301.13;5170381;28;20240;-83
2023/07/31 09:54:16;;;;;;;0.45;0.45;;;;;;;18.01;86.36;100297.47;5168742;28;20054;-83
2023/07/31 09:57:08;;;;;;;0.50;0.50;;;;;;;18.06;85.65;100291.81;5171512;28;20022;-84
2023/07/31 10:00:00;;;;;;;0.20;0.20;;;;;;;18.10;85.76;100288.03;5161136;28;20040;-83
2023/07/31 10:02:52;;;;;;;0.20;0.20;;;;;;;17.70;87.98;100295.91;5168244;28;20109;-83
2023/07/31 10:05:49;;;;;;;0.20;0.20;;;;;;;17.66;89.88;100287.28;5164738;28;20037;-83
2023/07/31 10:08:42;;;;;;;0.40;0.40;;;;;;;17.78;89.40;100293.59;5191434;28;20046;-83
2023/07/31 10:11:59;;;;;;;0.52;0.52;;;;;;;17.77;88.85;100294.56;5166613;28;20096;-84
2023/07/31 10:14:52;;;;;;;0.35;0.35;;;;;;;17.70;89.11;100285.28;5166860;28;20580;-83
2023/07/31 10:17:43;;;;;;;0.25;0.25;;;;;;;17.75;88.05;100293.78;5157621;28;20029;-83
2023/07/31 10:20:36;;;;;;;0.52;0.52;;;;;;;17.82;86.99;100284.47;5170946;28;20034;-83
2023/07/31 10:23:28;;;;;;;1.25;1.15;;;;;;;17.78;87.80;100289.13;5165414;28;20113;-84
2023/07/31 10:26:19;;;;;;;0.35;0.35;;;;;;;17.89;87.05;100285.78;5161847;28;20037;-82
2023/07/31 10:29:11;;;;;;;0.40;0.40;;;;;;;17.93;87.58;100286.47;5179917;28;20053;-84
2023/07/31 10:32:06;;;;;;;0.63;0.63;;;;;;;18.02;86.77;100282.38;5164662;28;20113;-84
2023/07/31 10:34:57;;;;;;;0.57;0.57;;;;;;;17.98;86.20;100283.50;5162295;28;20178;-84
2023/07/31 10:37:48;;;;;;;0.43;0.43;;;;;;;18.00;86.56;100290.44;5164416;28;20048;-84
2023/07/31 10:40:39;;;;;;;0.57;0.57;;;;;;;18.05;86.59;100290.16;5170877;28;20038;-84
2023/07/31 10:43:32;;;;;;;0.40;0.40;;;;;;;18.09;85.13;100287.19;5164093;28;20070;-84
2023/07/31 10:46:23;;;;;;;0.22;0.22;;;;;;;18.15;85.73;100288.56;5166948;28;20046;-83
2023/07/31 10:49:21;;;;;;;0.30;0.30;;;;;;;18.15;85.11;100275.28;5168928;28;20306;-83
2023/07/31 10:52:13;;;;;;;0.20;0.20;;;;;;;18.21;84.75;100280.22;5165923;28;20034;-83
2023/07/31 10:55:24;;;;;;;1.85;0.88;;;;;;;18.23;83.74;100270.34;5165396;28;20468;-82
2023/07/31 10:58:18;;;;;;;0.30;0.30;;;;;;;18.25;83.55;100268.44;5181582;28;20133;-84
2023/07/31 11:01:09;;;;;;;0.40;0.40;;;;;;;18.29;84.76;100263.75;5153922;28;20117;-83
2023/07/31 11:04:10;;;;;;;0.30;0.30;;;;;;;18.45;83.13;100252.97;5153700;28;20042;-84
2023/07/31 11:07:03;;;;;;;0.28;0.28;;;;;;;18.54;83.23;100248.81;5155285;28;20485;-83
2023/07/31 11:09:53;;;;;;;0.50;0.50;;;;;;;18.68;83.28;100255.88;5167111;28;20274;-84
2023/07/31 11:12:47;;;;;;;0.30;0.30;;;;;;;18.99;82.01;100251.09;5165230;28;20038;-84
2023/07/31 11:15:38;;;;;;;0.30;0.30;;;;;;;19.11;80.22;100254.69;5155083;28;20042;-84
2023/07/31 11:18:29;;;;;;;0.20;0.20;;;;;;;19.24;79.70;100258.22;5154634;28;20033;-84
2023/07/31 11:21:22;;;;;;;0.30;0.30;;;;;;;19.25;79.08;100251.94;5152982;28;20050;-83
2023/07/31 11:24:13;;;;;;;0.30;0.30;;;;;;;19.34;77.55;100259.22;5165572;28;20107;-84
2023/07/31 11:27:07;;;;;;;0.30;0.30;;;;;;;19.29;77.43;100255.22;5166846;28;20033;-84
2023/07/31 11:30:02;;;;;;;0.30;0.30;;;;;;;19.35;78.48;100268.91;5164365;28;20038;-83
2023/07/31 11:32:55;;;;;;;0.30;0.30;;;;;;;19.39;78.27;100250.94;5168452;28;20030;-85
2023/07/31 11:35:49;;;;;;;0.47;0.47;;;;;;;19.42;77.85;100242.75;5172373;28;20038;-85
2023/07/31 11:38:39;;;;;;;1.08;0.50;;;;;;;19.52;78.45;100252.72;5158458;28;20754;-85
2023/07/31 11:41:30;;;;;;;0.22;0.22;;;;;;;19.54;78.42;100248.97;5158796;28;20062;-85
2023/07/31 11:44:23;;;;;;;1.55;0.63;;;;;;;19.50;77.69;100244.84;5165645;28;20161;-84
2023/07/31 11:47:14;;;;;;;0.60;0.60;;;;;;;19.48;78.01;100265.41;5155192;28;20029;-84
2023/07/31 11:50:09;;;;;;;0.40;0.40;;;;;;;19.61;77.58;100250.22;5156622;28;20034;-84
2023/07/31 11:53:06;;;;;;;0.52;0.52;;;;;;;19.53;77.08;100249.09;5168987;28;20038;-84
2023/07/31 11:56:00;;;;;;;0.32;0.32;;;;;;;19.45;77.40;100255.84;5170551;28;20142;-84
2023/07/31 11:58:58;;;;;;;0.30;0.30;;;;;;;19.41;77.64;100242.84;5153642;28;20401;-84
2023/07/31 12:01:53;;;;;;;1.65;0.57;;;;;;;19.44;77.38;100256.78;5168820;28;20021;-84
2023/07/31 12:04:45;;;;;;;0.82;0.75;;;;;;;19.44;78.02;100250.59;5174009;28;21170;-84
2023/07/31 12:07:45;;;;;;;1.38;0.43;;;;;;;19.38;79.07;100254.53;5161794;28;20034;-84
2023/07/31 12:10:36;;;;;;;0.30;0.30;;;;;;;19.29;81.27;100249.91;5169768;28;20050;-84
2023/07/31 12:13:27;;;;;;;0.20;0.20;;;;;;;19.28;81.30;100248.22;5170062;28;20030;-84
2023/07/31 12:16:18;;;;;;;0.28;0.28;;;;;;;19.28;81.48;100248.22;5171775;28;20067;-85
2023/07/31 12:19:09;;;;;;;0.25;0.25;;;;;;;19.32;81.41;100255.84;5174717;28;20184;-83
2023/07/31 12:22:00;;;;;;;0.20;0.20;;;;;;;19.22;82.15;100252.16;5169562;28;20492;-84
2023/07/31 12:24:54;;;;;;;0.40;0.40;;;;;;;19.36;82.25;100253.81;5174433;28;20026;-84
2023/07/31 12:27:45;;;;;;;0.32;0.32;;;;;;;19.27;83.58;100247.34;5171810;28;20129;-84
2023/07/31 12:30:36;;;;;;;0.25;0.25;;;;;;;19.44;83.58;100238.16;5166759;28;20047;-83
2023/07/31 12:33:32;;;;;;;0.77;0.77;;;;;;;19.49;83.68;100236.00;5173329;28;20038;-83
2023/07/31 12:36:24;;;;;;;0.30;0.30;;;;;;;19.21;84.38;100226.50;5170002;28;20274;-84
2023/07/31 12:39:15;;;;;;;0.70;0.70;;;;;;;19.38;82.97;100230.59;5174579;28;20034;-84
2023/07/31 12:42:06;;;;;;;0.40;0.40;;;;;;;19.53;81.05;100226.00;5172910;28;20026;-85
2023/07/31 12:44:57;;;;;;;0.75;0.75;;;;;;;19.60;80.86;100227.25;5167845;28;20121;-84
2023/07/31 12:47:48;;;;;;;0.40;0.40;;;;;;;19.60;79.17;100219.25;5169979;28;20030;-84
2023/07/31 12:50:39;;;;;;;0.30;0.30;;;;;;;19.59;78.38;100217.56;5160065;28;20117;-84
2023/07/31 12:53:30;;;;;;;0.20;0.20;;;;;;;19.66;77.77;100215.31;5157724;28;20049;-84
2023/07/31 12:56:20;;;;;;;0.63;0.63;;;;;;;19.77;77.30;100206.53;5160464;28;20064;-84
2023/07/31 12:59:11;;;;;;;0.65;0.43;;;;;;;19.72;77.51;100206.88;5170072;28;20124;-83
2023/07/31 13:02:04;;;;;;;0.30;0.30;;;;;;;19.61;77.24;100201.50;5167145;28;20030;-84
2023/07/31 13:04:56;;;;;;;1.00;0.82;;;;;;;19.60;76.47;100184.66;5163134;28;20548;-84
2023/07/31 13:07:49;;;;;;;0.20;0.20;;;;;;;19.47;76.96;100179.41;5174029;28;20078;-84
2023/07/31 13:10:40;;;;;;;0.38;0.38;;;;;;;19.73;76.20;100173.13;5169999;28;20045;-84
2023/07/31 13:13:31;;;;;;;0.40;0.40;;;;;;;19.66;75.42;100146.13;5158666;28;20202;-84
2023/07/31 13:16:22;;;;;;;0.65;0.65;;;;;;;19.85;75.84;100160.75;5162432;28;20039;-84
2023/07/31 13:19:13;;;;;;;0.35;0.35;;;;;;;19.94;75.00;100150.25;5153138;28;20052;-84